Stations météo

réclame
Mon MeteoGroup
Tibenham Airfield, Grande-Bretagne (3931): Température de l'air & dewpoint: 12.10.2019 20:00:00 - 18.10.2019 20:00:00 (BST)Tibenham Airfield, Grande-Bretagne (3931): Température de l'air -20cm & Température de l'air -100cm: 12.10.2019 20:00:00 - 18.10.2019 20:00:00 (BST)Tibenham Airfield, Grande-Bretagne (3931): Vitesse du vent & gusts: 12.10.2019 20:00:00 - 18.10.2019 20:00:00 (BST)Tibenham Airfield, Grande-Bretagne (3931): Direction du vent: 12.10.2019 20:00:00 - 18.10.2019 20:00:00 (BST)Tibenham Airfield, Grande-Bretagne (3931): reduced air pressure: 12.10.2019 20:00:00 - 18.10.2019 20:00:00 (BST)Tibenham Airfield, Grande-Bretagne (3931): Ensoleillement: 12.10.2019 20:00:00 - 18.10.2019 20:00:00 (BST)Tibenham Airfield, Grande-Bretagne (3931): Quantités de précipitations: 12.10.2019 20:00:00 - 18.10.2019 20:00:00 (BST)
Date & Time tt [°C] td [°C] tt -20cm [°C] tt -100cm [°C] ff [km/h] ff [knt] fx [km/h] fx [knt] dd ppp [hPa] sd [min] rr [mm]
18.10.2019 20:00:00 - - - - - - - - - - - -
18.10.2019 19:00:00 8,3 7,6 - - 9 5 - - S 999,2 0 0,0
18.10.2019 18:00:00 8,8 7,6 - - 15 8 83 45 SW 999,2 0 2,8
18.10.2019 17:00:00 13,1 7,7 - - 24 13 - - SSW 998,1 36 0,0
18.10.2019 16:00:00 13,3 7,9 - - 24 13 - - SW 998,0 24 0,0
18.10.2019 15:00:00 12,4 9,7 - - 22 12 - - WSW 998,4 12 0,6
18.10.2019 14:00:00 13,4 7,4 - - 31 17 54 29 SW 998,2 36 0,0
18.10.2019 13:00:00 13,7 7,8 - - 31 17 48 26 SW 997,9 48 0,0
18.10.2019 12:00:00 12,7 8,6 - - 31 17 - - WSW 997,9 60 0,0
18.10.2019 11:00:00 10,9 8,6 - - 28 15 - - WSW 997,5 12 0,0
18.10.2019 10:00:00 10,0 9,1 12,7 13,7 24 13 - - WSW 997,1 0 0,0
18.10.2019 09:00:00 9,8 8,6 - - 11 6 - - SSW 996,5 0 0,0
18.10.2019 08:00:00 9,5 8,6 - - 11 6 - - S 996,5 0 0,0
18.10.2019 07:00:00 9,6 8,5 - - 9 5 - - SSE 996,8 0 0,2
18.10.2019 06:00:00 10,6 9,1 - - 11 6 - - S 997,3 0 0,8
18.10.2019 05:00:00 11,1 10,1 - - 15 8 - - SSE 998,4 0 0,0
18.10.2019 04:00:00 10,2 9,3 - - 11 6 - - SSE 999,2 0 0,0
18.10.2019 03:00:00 10,2 9,2 - - 11 6 - - S 1000,0 0 0,0
18.10.2019 02:00:00 10,0 9,6 - - 11 6 - - S 1001,1 0 0,0
18.10.2019 01:00:00 10,4 9,5 - - 11 6 - - S 1001,7 - 0,0
18.10.2019 00:00:00 10,4 9,5 - - 13 7 - - S 1002,1 0 0,0
17.10.2019 23:00:00 10,4 8,8 - - 15 8 - - S 1002,7 0 0,0
17.10.2019 22:00:00 11,2 8,7 - - 15 8 - - S 1003,4 0 0,0
17.10.2019 21:00:00 10,3 9,5 - - 11 6 - - S 1003,6 0 0,0
17.10.2019 20:00:00 10,3 9,2 - - 11 6 - - SSE 1004,0 0 0,0
17.10.2019 19:00:00 11,3 9,4 - - 16 9 - - S 1004,2 0 0,0
17.10.2019 18:00:00 11,8 9,4 - - 13 7 - - S 1004,0 18 0,0
17.10.2019 17:00:00 12,8 10,3 - - 18 10 - - S 1003,9 0 0,0
17.10.2019 16:00:00 12,5 10,4 - - 13 7 - - S 1004,4 0 0,2
17.10.2019 15:00:00 12,1 10,4 - - 11 6 - - S 1005,2 0 1,2
17.10.2019 14:00:00 14,8 7,5 - - 15 8 - - S 1005,4 54 0,0
17.10.2019 13:00:00 13,6 7,9 - - 15 8 - - SSW 1006,0 48 0,0
17.10.2019 12:00:00 13,1 7,7 - - 15 8 - - SSE 1006,2 60 0,0
17.10.2019 11:00:00 11,2 8,8 - - 9 5 - - SSE 1006,9 18 0,0
17.10.2019 10:00:00 9,0 8,3 13,0 13,7 9 5 - - S 1007,0 0 0,0
17.10.2019 09:00:00 5,8 5,8 - - 11 6 - - S 1007,2 0 0,0
17.10.2019 08:00:00 4,0 3,9 - - 4 2 - - S 1007,0 0 0,0
17.10.2019 07:00:00 3,9 3,4 - - 8 4 - - W 1006,7 0 0,0
17.10.2019 06:00:00 5,3 4,4 - - 4 2 - - WSW 1006,2 0 0,0
17.10.2019 05:00:00 4,7 3,8 - - 8 4 - - WSW 1006,1 0 0,0
17.10.2019 04:00:00 7,4 6,6 - - 8 4 - - WSW 1006,2 0 0,0
17.10.2019 03:00:00 6,2 5,7 - - 8 4 - - WSW 1006,2 0 0,0
17.10.2019 02:00:00 6,0 5,6 - - 5 3 - - WSW 1006,2 0 0,0
17.10.2019 01:00:00 6,2 5,6 - - 8 4 - - WSW 1005,6 - 0,0
17.10.2019 00:00:00 7,2 6,2 - - 9 5 - - WSW 1005,1 0 0,0
16.10.2019 23:00:00 7,6 7,1 - - 9 5 - - SW 1004,8 0 0,0
16.10.2019 22:00:00 7,9 6,9 - - 9 5 - - WSW 1004,5 0 0,0
16.10.2019 21:00:00 10,4 8,9 - - 9 5 - - SSW 1004,0 0 0,0
16.10.2019 20:00:00 9,8 8,3 - - 8 4 - - WSW 1003,4 0 0,0
16.10.2019 19:00:00 10,7 8,5 - - 8 4 - - WSW 1003,1 0 0,0
16.10.2019 18:00:00 12,2 9,0 - - 5 3 - - WNW 1002,4 0 0,0
16.10.2019 17:00:00 13,7 10,5 - - 16 9 - - W 1002,0 0 0,0
16.10.2019 16:00:00 14,1 11,1 - - 21 11 - - W 1001,5 0 0,2
16.10.2019 15:00:00 14,9 12,0 - - 22 12 - - WSW 1001,0 18 0,0
16.10.2019 14:00:00 15,2 12,9 - - 24 13 - - WSW 1000,4 0 0,0
16.10.2019 13:00:00 15,4 14,8 - - 15 8 - - SW 1000,0 0 0,2
16.10.2019 12:00:00 14,4 14,2 - - 15 8 - - S 999,8 0 0,2
16.10.2019 11:00:00 13,5 13,2 - - 18 10 - - SSE 1000,3 0 0,2
16.10.2019 10:00:00 13,2 12,8 13,4 13,9 21 11 - - SSE 1000,7 0 0,0
16.10.2019 09:00:00 13,1 12,1 - - 21 11 - - SSE 1001,3 0 0,0
16.10.2019 08:00:00 12,5 11,5 - - 16 9 - - SSE 1001,7 0 0,0
16.10.2019 07:00:00 11,5 11,0 - - 13 7 - - SSE 1002,1 0 0,0
16.10.2019 06:00:00 10,7 9,9 - - 16 9 - - SSE 1002,7 0 0,0
16.10.2019 05:00:00 9,3 8,8 - - 11 6 - - SSE 1003,4 0 0,0
16.10.2019 04:00:00 8,8 8,6 - - 9 5 - - S 1004,0 0 0,0
16.10.2019 03:00:00 9,4 9,1 - - 11 6 - - S 1004,5 0 0,0
16.10.2019 02:00:00 9,7 9,3 - - 11 6 - - S 1004,8 0 0,2
16.10.2019 01:00:00 9,9 9,6 - - 11 6 - - S 1005,1 - 0,0
16.10.2019 00:00:00 10,8 10,2 - - 11 6 - - SSW 1005,1 0 0,0
15.10.2019 23:00:00 11,4 11,0 - - 13 7 - - S 1005,2 0 0,0
15.10.2019 22:00:00 10,5 10,5 - - 9 5 - - S 1005,1 0 0,0
15.10.2019 21:00:00 10,0 9,8 - - 8 4 - - SSE 1004,8 0 0,0
15.10.2019 20:00:00 9,9 9,7 - - 8 4 - - SE 1004,9 0 0,0
15.10.2019 19:00:00 9,7 9,0 - - 2 1 - - SE 1004,6 0 0,0
15.10.2019 18:00:00 11,3 9,5 - - 4 2 - - SSE 1004,1 12 0,0
15.10.2019 17:00:00 13,2 9,7 - - 4 2 - - SW 1003,7 18 0,0
15.10.2019 16:00:00 13,1 10,1 - - 11 6 - - WSW 1003,8 0 0,0
15.10.2019 15:00:00 12,6 9,9 - - 11 6 - - SW 1003,9 0 0,0
15.10.2019 14:00:00 12,1 9,7 - - 16 9 - - WSW 1003,6 0 0,0
15.10.2019 13:00:00 11,6 9,3 - - 15 8 - - SW 1003,7 0 0,0
15.10.2019 12:00:00 11,6 9,7 - - 21 11 - - WSW 1003,7 0 0,0
15.10.2019 11:00:00 11,1 9,4 - - 21 11 - - WSW 1003,7 0 0,0
15.10.2019 10:00:00 10,9 9,4 13,7 14,0 21 11 - - WSW 1003,3 0 0,0
15.10.2019 09:00:00 10,9 9,4 - - 22 12 - - WSW 1002,7 0 0,0
15.10.2019 08:00:00 11,0 9,4 - - 24 13 - - WSW 1002,1 0 0,0
15.10.2019 07:00:00 11,1 9,4 - - 22 12 - - SW 1001,7 0 0,0
15.10.2019 06:00:00 11,4 9,8 - - 24 13 - - SW 1001,1 0 0,0
15.10.2019 05:00:00 11,5 10,2 - - 18 10 - - SW 1000,4 0 0,0
15.10.2019 04:00:00 12,6 11,4 - - 26 14 - - SW 999,8 0 0,0
15.10.2019 03:00:00 14,3 13,0 - - 16 9 - - SSW 999,6 0 0,0
15.10.2019 02:00:00 14,8 13,5 - - 15 8 - - S 999,6 0 0,0
15.10.2019 01:00:00 15,0 14,0 - - 16 9 - - S 999,2 - 0,0
15.10.2019 00:00:00 15,0 14,0 - - 15 8 - - S 999,2 0 0,0
14.10.2019 23:00:00 14,8 13,9 - - 16 9 - - SSE 999,6 0 0,0
14.10.2019 22:00:00 15,3 14,3 - - 15 8 - - SSE 999,8 0 0,2
14.10.2019 21:00:00 15,4 15,1 - - 16 9 - - ESE 1000,5 0 7,0
14.10.2019 20:00:00 14,6 14,3 - - 18 10 - - ESE 1002,1 0 0,0
14.10.2019 19:00:00 14,3 13,8 - - 16 9 - - ESE 1002,4 0 0,4
14.10.2019 18:00:00 13,9 13,0 - - 18 10 - - E 1002,8 0 0,0
14.10.2019 17:00:00 13,1 11,6 - - 22 12 - - E 1003,5 0 0,0
14.10.2019 16:00:00 12,9 10,3 - - 24 13 - - E 1003,9 0 0,0
14.10.2019 15:00:00 12,3 11,4 - - 18 10 - - E 1005,6 0 0,0
14.10.2019 14:00:00 12,2 9,4 - - 18 10 - - ENE 1006,5 0 0,0
14.10.2019 13:00:00 11,9 9,7 - - 16 9 - - E 1008,1 0 0,0
14.10.2019 12:00:00 12,0 10,2 - - 13 7 - - ENE 1008,9 0 0,0
14.10.2019 11:00:00 11,4 10,6 - - 9 5 - - E 1010,3 0 0,4
14.10.2019 10:00:00 10,1 9,6 13,7 14,0 9 5 - - ESE 1010,8 0 1,2
14.10.2019 09:00:00 10,0 9,4 - - 8 4 - - SE 1011,1 0 0,4
14.10.2019 08:00:00 9,3 8,7 - - 5 3 - - SE 1011,0 0 0,0
14.10.2019 07:00:00 9,0 8,4 - - 5 3 - - SE 1010,9 0 0,0
14.10.2019 06:00:00 9,2 8,6 - - 8 4 - - SSE 1011,0 0 0,0
14.10.2019 05:00:00 9,6 8,5 - - 8 4 - - SSW 1011,0 0 0,0
14.10.2019 04:00:00 9,5 8,4 - - 8 4 - - S 1010,7 0 0,0
14.10.2019 03:00:00 9,5 8,3 - - 11 6 - - S 1010,8 0 0,0
14.10.2019 02:00:00 9,5 8,3 - - 8 4 - - SSW 1010,6 0 0,0
14.10.2019 01:00:00 10,1 8,3 - - 9 5 - - SSW 1010,7 - 0,0
14.10.2019 00:00:00 10,0 8,2 - - 15 8 - - WSW 1010,3 0 0,0
13.10.2019 23:00:00 10,1 8,0 - - 18 10 - - WSW 1009,5 0 0,0
13.10.2019 22:00:00 10,8 8,1 - - 22 12 - - WSW 1008,1 0 0,0
13.10.2019 21:00:00 11,5 8,5 - - 26 14 - - WSW 1007,1 0 0,0
13.10.2019 20:00:00 12,7 9,1 - - 31 17 46 25 WSW 1005,7 0 0,0
13.10.2019 19:00:00 13,5 9,8 - - 31 17 52 28 WSW 1004,1 0 0,0
13.10.2019 18:00:00 14,9 11,6 - - 24 13 - - SW 1003,0 0 0,0
13.10.2019 17:00:00 15,3 12,6 - - 28 15 48 26 SW 1002,0 0 0,0
13.10.2019 16:00:00 15,8 12,6 - - 31 17 50 27 SW 1000,9 0 0,0
13.10.2019 15:00:00 16,6 13,7 - - 29 16 48 26 SW 999,6 0 0,0
13.10.2019 14:00:00 16,2 14,4 - - 22 12 - - S 999,1 0 0,4
13.10.2019 13:00:00 16,8 13,9 - - 22 12 - - S 999,2 0 0,0
13.10.2019 12:00:00 15,8 14,2 - - 22 12 - - S 999,6 0 0,0
13.10.2019 11:00:00 15,4 14,4 - - 21 11 - - S 1000,2 0 0,0
13.10.2019 10:00:00 14,0 13,8 13,7 14,0 16 9 - - SSE 1000,9 0 0,0
13.10.2019 09:00:00 12,5 12,4 - - 13 7 - - SE 1001,5 0 0,0
13.10.2019 08:00:00 11,0 11,0 - - 11 6 - - E 1001,9 0 0,6
13.10.2019 07:00:00 10,6 10,6 - - 8 4 - - ENE 1003,2 0 0,4
13.10.2019 06:00:00 10,3 10,3 - - 9 5 - - ENE 1003,9 0 0,6
13.10.2019 05:00:00 10,2 10,2 - - 9 5 - - ENE 1004,9 0 0,6
13.10.2019 04:00:00 10,3 10,2 - - 5 3 - - NE 1005,7 0 1,0
13.10.2019 03:00:00 10,3 10,2 - - 4 2 - - NNE 1006,4 0 1,2
13.10.2019 02:00:00 10,4 10,2 - - 2 1 - - SE 1007,0 0 0,6
13.10.2019 01:00:00 10,5 10,3 - - 4 2 - - SSE 1007,4 - 1,4
13.10.2019 00:00:00 10,7 10,5 - - 8 4 - - S 1007,7 0 1,2
12.10.2019 23:00:00 10,9 10,6 - - 9 5 - - S 1008,0 0 0,4
12.10.2019 22:00:00 10,9 10,6 - - 8 4 - - S 1008,1 0 0,2
12.10.2019 21:00:00 11,0 10,6 - - 8 4 - - S 1008,5 0 0,2
12.10.2019 20:00:00 11,2 10,5 - - 5 3 - - S 1008,1 0 0,0

tt = Température de l'air
td = dewpoint
tt -20cm = Température de l'air -20cm
tt -100cm = Température de l'air -100cm
ff = Vitesse du vent
fx = gusts
dd = Direction du vent
ppp = reduced air pressure
sd = Ensoleillement
rr = Quantités de précipitations

stations d'obs. à proximité